Time;durP1;ratioP1;P1;durP2;ratioP2;P2;SDS_P1;SDS_P2;PMS_P1;PMS_P2;Temp;Humidity;BMP_temperature;BMP_pressure;BME280_temperature;BME280_humidity;BME280_pressure;Samples;Min_cycle;Max_cycle;Signal;HPM_P1;HPM_P2
2023/03/11 00:00:21;;;;;;;9.57;6.65;;;12.30;99.90;;;;;;5105331;28;20034;-54
2023/03/11 00:02:49;;;;;;;7.45;6.10;;;12.30;99.90;;;;;;5073099;28;20031;-54
2023/03/11 00:05:30;;;;;;;8.50;5.30;;;12.30;99.90;;;;;;5040213;28;20487;-54
2023/03/11 00:07:56;;;;;;;6.45;5.10;;;12.20;99.90;;;;;;5039538;28;20025;-54
2023/03/11 00:10:26;;;;;;;6.53;5.35;;;12.30;99.90;;;;;;5040716;28;20124;-54
2023/03/11 00:12:51;;;;;;;8.82;5.65;;;12.40;99.90;;;;;;5046959;28;20044;-54
2023/03/11 00:15:18;;;;;;;8.77;5.47;;;12.50;99.90;;;;;;5050890;28;20036;-54
2023/03/11 00:17:44;;;;;;;6.85;5.20;;;12.50;99.90;;;;;;5050794;28;20108;-54
2023/03/11 00:20:21;;;;;;;7.13;4.80;;;12.50;99.90;;;;;;5034073;28;20647;-54
2023/03/11 00:22:49;;;;;;;6.72;4.88;;;12.50;99.90;;;;;;5048554;28;20027;-55
2023/03/11 00:25:16;;;;;;;6.05;4.70;;;12.50;99.90;;;;;;5050775;28;20044;-54
2023/03/11 00:27:42;;;;;;;6.50;4.50;;;12.50;99.90;;;;;;5050592;28;20037;-54
2023/03/11 00:30:09;;;;;;;13.82;9.27;;;12.50;99.90;;;;;;5030578;28;20128;-54
2023/03/11 00:32:34;;;;;;;42.47;25.58;;;12.50;99.90;;;;;;5018088;28;20113;-54
2023/03/11 00:35:00;;;;;;;64.80;38.22;;;12.60;99.90;;;;;;4991137;28;20465;-54
2023/03/11 00:37:26;;;;;;;22.75;15.07;;;12.60;99.90;;;;;;5031908;28;20040;-54
2023/03/11 00:39:52;;;;;;;8.75;6.55;;;12.60;99.90;;;;;;5034761;28;20033;-54
2023/03/11 00:42:17;;;;;;;9.38;7.03;;;12.70;99.90;;;;;;5034817;28;20040;-54
2023/03/11 00:44:43;;;;;;;10.57;7.20;;;12.70;99.90;;;;;;5034797;28;20123;-54
2023/03/11 00:47:11;;;;;;;14.93;10.40;;;12.70;99.90;;;;;;4985191;28;20037;-54
2023/03/11 00:49:36;;;;;;;16.08;9.75;;;12.70;99.90;;;;;;5032013;28;20558;-54
2023/03/11 00:52:03;;;;;;;31.60;19.80;;;12.60;99.90;;;;;;5034484;28;20033;-54
2023/03/11 00:54:29;;;;;;;48.35;30.40;;;;;;;;;;5034037;28;20072;-54
2023/03/11 00:56:55;;;;;;;37.13;23.10;;;;;;;;;;5034096;28;20212;-54
2023/03/11 00:59:21;;;;;;;22.40;14.52;;;;;;;;;;5034519;28;20037;-54
2023/03/11 01:01:47;;;;;;;16.02;10.48;;;;;;;;;;5034164;28;20042;-55
2023/03/11 01:04:14;;;;;;;11.32;7.30;;;;;;;;;;5034079;28;20477;-54
2023/03/11 01:06:40;;;;;;;8.43;5.50;;;;;;;;;;5044473;28;20067;-55
2023/03/11 01:09:06;;;;;;;7.22;4.18;;;;;;;;;;5076833;28;20032;-54
2023/03/11 01:11:32;;;;;;;6.82;4.50;;;12.40;99.90;;;;;;5076081;28;20040;-54
2023/03/11 01:13:57;;;;;;;4.63;3.05;;;12.20;99.90;;;;;;5057382;28;20396;-54
2023/03/11 01:16:24;;;;;;;4.20;2.75;;;12.20;99.90;;;;;;5074026;28;20044;-54
2023/03/11 01:18:49;;;;;;;4.25;2.78;;;12.10;99.90;;;;;;5076070;28;20036;-54
2023/03/11 01:21:15;;;;;;;5.25;2.65;;;12.20;99.90;;;;;;5057360;28;20029;-54
2023/03/11 01:23:41;;;;;;;4.20;2.30;;;12.20;99.90;;;;;;5057300;28;20033;-55
2023/03/11 01:26:07;;;;;;;4.95;2.35;;;12.20;99.90;;;;;;5076303;28;20040;-54
2023/03/11 01:28:33;;;;;;;5.03;2.58;;;12.20;99.90;;;;;;5075829;28;20036;-54
2023/03/11 01:30:59;;;;;;;4.13;2.28;;;12.20;99.90;;;;;;5076299;28;20035;-55
2023/03/11 01:33:25;;;;;;;3.83;2.22;;;12.20;99.90;;;;;;5076148;28;20044;-54
2023/03/11 01:35:50;;;;;;;3.83;2.70;;;12.20;99.90;;;;;;5057009;28;20066;-54
2023/03/11 01:38:16;;;;;;;4.47;2.45;;;12.20;99.90;;;;;;5076052;28;20111;-55
2023/03/11 01:40:47;;;;;;;5.55;2.50;;;12.40;99.90;;;;;;5075720;28;20020;-54
2023/03/11 01:43:38;;;;;;;4.35;2.15;;;12.40;99.90;;;;;;5076118;28;20021;-54
2023/03/11 01:46:04;;;;;;;4.63;1.90;;;;;;;;;;5075511;28;20116;-54
2023/03/11 01:48:30;;;;;;;2.95;2.10;;;;;;;;;;5075374;28;20115;-55
2023/03/11 01:50:56;;;;;;;3.80;2.30;;;;;;;;;;5076017;28;20028;-55
2023/03/11 01:53:23;;;;;;;3.72;2.30;;;;;;;;;;5075454;28;20571;-54
2023/03/11 01:55:50;;;;;;;4.57;2.22;;;;;;;;;;5075068;28;20068;-54
2023/03/11 01:58:18;;;;;;;4.07;2.30;;;;;;;;;;5104839;28;20051;-55
2023/03/11 02:00:45;;;;;;;4.88;2.55;;;12.70;99.90;;;;;;5115175;28;20470;-54
2023/03/11 02:03:20;;;;;;;7.05;2.88;;;12.60;99.90;;;;;;5115502;28;20111;-54
2023/03/11 02:05:48;;;;;;;4.45;1.90;;;12.50;99.90;;;;;;5097508;28;20106;-54
2023/03/11 02:08:13;;;;;;;3.97;2.20;;;12.60;99.90;;;;;;5115648;28;20106;-54
2023/03/11 02:10:41;;;;;;;5.20;2.90;;;12.60;99.90;;;;;;5115661;28;20107;-54
2023/03/11 02:13:08;;;;;;;5.20;3.08;;;12.60;99.90;;;;;;5116172;28;20042;-54
2023/03/11 02:15:34;;;;;;;6.28;2.38;;;12.60;99.90;;;;;;5115743;28;20103;-54
2023/03/11 02:18:04;;;;;;;5.78;1.98;;;12.60;99.90;;;;;;5115675;28;20020;-54
2023/03/11 02:20:56;;;;;;;4.15;2.55;;;12.60;99.90;;;;;;5115882;28;20028;-54
2023/03/11 02:23:27;;;;;;;6.03;2.55;;;12.50;99.90;;;;;;5115983;28;20027;-54
2023/03/11 02:26:14;;;;;;;6.53;3.00;;;12.50;99.90;;;;;;5115586;28;20019;-54
2023/03/11 02:28:41;;;;;;;5.38;3.20;;;12.40;99.90;;;;;;5115467;28;20282;-53
2023/03/11 02:31:06;;;;;;;5.30;3.15;;;12.30;99.90;;;;;;5115560;28;20024;-54
2023/03/11 02:33:34;;;;;;;5.22;3.38;;;12.20;99.90;;;;;;5115317;28;20065;-55
2023/03/11 02:36:00;;;;;;;5.78;2.70;;;12.10;99.90;;;;;;5072503;28;20033;-54
2023/03/11 02:38:26;;;;;;;5.43;3.22;;;12.10;99.90;;;;;;5055553;28;20094;-54
2023/03/11 02:41:00;;;;;;;7.07;3.15;;;12.10;99.90;;;;;;5072444;28;20124;-55
2023/03/11 02:43:43;;;;;;;5.82;3.53;;;12.10;99.90;;;;;;5039065;28;20488;-55
2023/03/11 02:46:11;;;;;;;6.68;3.50;;;12.10;99.90;;;;;;5072412;28;20032;-55
2023/03/11 02:48:37;;;;;;;6.03;3.58;;;12.10;99.90;;;;;;5072361;28;20395;-55
2023/03/11 02:51:03;;;;;;;5.50;3.33;;;12.00;99.90;;;;;;5071906;28;20044;-54
2023/03/11 02:53:32;;;;;;;7.50;3.53;;;11.80;99.90;;;;;;5055277;28;20625;-54
2023/03/11 02:55:58;;;;;;;8.40;3.65;;;11.60;99.90;;;;;;5072103;28;20064;-55
2023/03/11 02:58:24;;;;;;;6.72;3.67;;;11.50;99.90;;;;;;5072084;28;20424;-55
2023/03/11 03:00:49;;;;;;;11.40;6.05;;;11.50;99.90;;;;;;5071397;28;20037;-55
2023/03/11 03:03:15;;;;;;;11.70;7.60;;;11.60;99.90;;;;;;5072144;28;20033;-55
2023/03/11 03:05:41;;;;;;;13.13;7.95;;;11.50;99.90;;;;;;5071835;28;20035;-56
2023/03/11 03:08:07;;;;;;;21.08;13.93;;;11.60;99.90;;;;;;5077550;28;20034;-55
2023/03/11 03:10:33;;;;;;;18.77;13.45;;;11.70;99.90;;;;;;5114959;28;20031;-55
2023/03/11 03:12:58;;;;;;;17.02;13.07;;;11.70;99.90;;;;;;5114453;28;20035;-55
2023/03/11 03:15:24;;;;;;;24.05;19.00;;;11.80;99.90;;;;;;5114775;28;20394;-55
2023/03/11 03:17:50;;;;;;;33.60;24.90;;;11.90;99.90;;;;;;5114498;28;20027;-55
2023/03/11 03:20:17;;;;;;;24.77;18.60;;;11.90;99.90;;;;;;5114569;28;20036;-54
2023/03/11 03:22:43;;;;;;;24.38;17.95;;;11.90;99.90;;;;;;5114300;28;20028;-55
2023/03/11 03:25:09;;;;;;;18.77;13.82;;;11.90;99.90;;;;;;5114430;28;20058;-55
2023/03/11 03:27:35;;;;;;;18.10;12.90;;;12.00;99.90;;;;;;5114446;28;20467;-55
2023/03/11 03:30:02;;;;;;;19.20;12.70;;;12.00;99.90;;;;;;5114255;28;20035;-54
2023/03/11 03:32:28;;;;;;;15.85;10.75;;;12.00;99.90;;;;;;5071451;28;20063;-55
2023/03/11 03:34:57;;;;;;;17.55;12.13;;;11.90;99.90;;;;;;5071242;28;20145;-54
2023/03/11 03:37:25;;;;;;;22.58;15.10;;;11.90;99.90;;;;;;5071385;28;20111;-54
2023/03/11 03:39:50;;;;;;;20.48;14.30;;;11.90;99.90;;;;;;5071373;28;20459;-54
2023/03/11 03:42:16;;;;;;;18.13;11.20;;;11.90;99.90;;;;;;5071421;28;20062;-54
2023/03/11 03:44:42;;;;;;;19.35;12.43;;;11.80;99.90;;;;;;5071257;28;20036;-55
2023/03/11 03:47:07;;;;;;;23.67;12.02;;;11.80;99.90;;;;;;5071212;28;20056;-54
2023/03/11 03:49:33;;;;;;;16.77;11.02;;;11.80;99.90;;;;;;5071425;28;20181;-54
2023/03/11 03:51:59;;;;;;;18.95;11.20;;;11.90;99.90;;;;;;5054273;28;20036;-54
2023/03/11 03:54:25;;;;;;;18.02;10.98;;;11.90;99.90;;;;;;5071090;28;20521;-54
2023/03/11 03:56:50;;;;;;;18.35;12.00;;;12.00;99.90;;;;;;5070883;28;20047;-55
2023/03/11 03:59:16;;;;;;;17.88;12.23;;;12.00;99.90;;;;;;5071282;28;20063;-54
2023/03/11 04:01:42;;;;;;;20.67;12.73;;;11.90;99.90;;;;;;5071194;28;20039;-55
2023/03/11 04:04:07;;;;;;;16.77;11.77;;;11.90;99.90;;;;;;5069693;28;20043;-54
2023/03/11 04:06:33;;;;;;;16.27;11.82;;;12.00;99.90;;;;;;5113947;28;20024;-54
2023/03/11 04:08:59;;;;;;;19.60;12.65;;;12.00;99.90;;;;;;5077810;28;20425;-55
2023/03/11 04:11:25;;;;;;;15.77;11.38;;;12.00;99.90;;;;;;5077401;28;20053;-54
2023/03/11 04:13:50;;;;;;;13.80;9.95;;;12.10;99.90;;;;;;5113112;28;20039;-54
2023/03/11 04:16:20;;;;;;;14.10;10.10;;;12.10;99.90;;;;;;5113913;28;20024;-54
2023/03/11 04:18:46;;;;;;;13.13;9.82;;;12.20;99.90;;;;;;5113550;28;20501;-54
2023/03/11 04:21:12;;;;;;;14.25;9.80;;;12.20;99.90;;;;;;5113485;28;20024;-54
2023/03/11 04:23:38;;;;;;;14.38;10.00;;;12.20;99.90;;;;;;5113583;28;20368;-54
2023/03/11 04:26:04;;;;;;;13.65;9.63;;;12.20;99.90;;;;;;5113689;28;20132;-54
2023/03/11 04:28:30;;;;;;;11.98;9.10;;;12.10;99.90;;;;;;5113490;28;20031;-54
2023/03/11 04:30:56;;;;;;;13.50;10.75;;;12.10;99.90;;;;;;5113474;28;20028;-54
2023/03/11 04:33:22;;;;;;;17.00;11.85;;;12.10;99.90;;;;;;5113788;28;20517;-54
2023/03/11 04:35:48;;;;;;;19.98;13.07;;;12.10;99.90;;;;;;5077792;28;20035;-54
2023/03/11 04:38:13;;;;;;;23.92;17.42;;;12.20;99.90;;;;;;5113371;28;20138;-54
2023/03/11 04:40:39;;;;;;;35.75;25.95;;;12.20;99.90;;;;;;5113587;28;20058;-54
2023/03/11 04:43:05;;;;;;;38.10;24.42;;;12.20;99.90;;;;;;5113166;28;20084;-54
2023/03/11 04:45:31;;;;;;;33.92;24.08;;;12.30;99.90;;;;;;5113370;28;20055;-54
2023/03/11 04:47:57;;;;;;;29.70;19.00;;;12.30;99.90;;;;;;5113173;28;20547;-55
2023/03/11 04:50:22;;;;;;;26.98;19.88;;;12.30;99.90;;;;;;5113359;28;20086;-54
2023/03/11 04:52:48;;;;;;;16.95;10.77;;;12.10;99.90;;;;;;5113148;28;20057;-54
2023/03/11 04:55:15;;;;;;;16.95;11.65;;;11.80;99.90;;;;;;5113503;28;20099;-54
2023/03/11 04:57:41;;;;;;;16.67;11.55;;;11.50;99.90;;;;;;5113205;28;20047;-54
2023/03/11 05:00:14;;;;;;;16.05;10.75;;;11.60;99.90;;;;;;5070353;28;20171;-55
2023/03/11 05:02:41;;;;;;;14.90;10.95;;;11.70;99.90;;;;;;5054229;28;20037;-54
2023/03/11 05:05:08;;;;;;;14.55;10.93;;;11.80;99.90;;;;;;5070498;28;20032;-54
2023/03/11 05:07:35;;;;;;;13.05;10.68;;;11.90;99.90;;;;;;5053849;28;20037;-54
2023/03/11 05:10:01;;;;;;;13.45;10.05;;;11.90;99.90;;;;;;5036955;28;20032;-54
2023/03/11 05:12:27;;;;;;;15.70;12.43;;;11.60;99.90;;;;;;5070342;28;20032;-54
2023/03/11 05:14:53;;;;;;;15.20;13.55;;;11.80;99.90;;;;;;5070302;28;20056;-54
2023/03/11 05:17:19;;;;;;;12.60;8.75;;;11.80;99.90;;;;;;5070344;28;20039;-54
2023/03/11 05:19:45;;;;;;;12.32;8.57;;;11.70;99.90;;;;;;5070218;28;20036;-54
2023/03/11 05:22:11;;;;;;;10.90;9.02;;;11.60;99.90;;;;;;5070426;28;20036;-54
2023/03/11 05:24:37;;;;;;;13.20;9.80;;;11.50;99.90;;;;;;5056313;28;20020;-54
2023/03/11 05:27:03;;;;;;;13.98;9.27;;;11.60;99.90;;;;;;5073713;28;20033;-54
2023/03/11 05:29:29;;;;;;;16.92;10.65;;;11.20;99.90;;;;;;5057937;28;20072;-54
2023/03/11 05:31:54;;;;;;;15.52;11.73;;;11.20;99.90;;;;;;5089283;28;20036;-54
2023/03/11 05:34:20;;;;;;;16.10;10.93;;;11.10;99.90;;;;;;5110323;28;20039;-54
2023/03/11 05:36:46;;;;;;;13.70;9.65;;;11.00;99.90;;;;;;5116668;28;20022;-54
2023/03/11 05:39:12;;;;;;;12.07;9.63;;;11.00;99.90;;;;;;5064001;28;20061;-54
2023/03/11 05:41:38;;;;;;;13.93;10.68;;;10.90;99.90;;;;;;5113098;28;20020;-54
2023/03/11 05:44:04;;;;;;;10.93;9.40;;;10.80;99.90;;;;;;5116574;28;20020;-54
2023/03/11 05:46:31;;;;;;;11.52;7.50;;;10.70;99.90;;;;;;5073458;28;20372;-54
2023/03/11 05:48:58;;;;;;;10.57;7.03;;;10.80;99.90;;;;;;5073450;28;20117;-54
2023/03/11 05:51:23;;;;;;;11.65;7.43;;;10.70;99.90;;;;;;5073419;28;20075;-54
2023/03/11 05:53:49;;;;;;;10.32;6.95;;;10.80;99.90;;;;;;5073278;28;20044;-54
2023/03/11 05:56:20;;;;;;;9.50;7.22;;;10.80;99.90;;;;;;5073647;28;20113;-54
2023/03/11 05:58:46;;;;;;;10.75;7.50;;;11.00;99.90;;;;;;5073291;28;20048;-54
2023/03/11 06:01:14;;;;;;;13.00;7.35;;;11.30;99.90;;;;;;5070621;28;20029;-54
2023/03/11 06:03:41;;;;;;;10.70;6.80;;;11.50;99.90;;;;;;5073317;28;20132;-54
2023/03/11 06:06:09;;;;;;;12.00;8.02;;;11.60;99.90;;;;;;5073203;28;20056;-55
2023/03/11 06:08:35;;;;;;;9.60;7.15;;;11.50;99.90;;;;;;5073092;28;20032;-54
2023/03/11 06:11:09;;;;;;;12.02;7.22;;;11.50;99.90;;;;;;5039702;28;20037;-54
2023/03/11 06:13:36;;;;;;;54.13;21.67;;;11.50;99.90;;;;;;5072985;28;20039;-54
2023/03/11 06:16:02;;;;;;;92.40;33.58;;;11.70;99.90;;;;;;5056534;28;20036;-54
2023/03/11 06:18:27;;;;;;;93.15;34.30;;;11.90;99.90;;;;;;5111736;28;20043;-54
2023/03/11 06:20:56;;;;;;;98.07;37.42;;;12.10;99.90;;;;;;5115705;28;20471;-54
2023/03/11 06:23:23;;;;;;;124.78;49.10;;;12.00;99.90;;;;;;5115731;28;20028;-55
2023/03/11 06:26:06;;;;;;;43.58;18.70;;;11.80;99.90;;;;;;5115609;28;20103;-54
2023/03/11 06:28:33;;;;;;;8.93;5.20;;;12.10;99.90;;;;;;5115540;28;20027;-54
2023/03/11 06:31:25;;;;;;;7.63;3.72;;;11.70;99.90;;;;;;5115596;28;20432;-54
2023/03/11 06:33:52;;;;;;;5.82;2.90;;;11.40;99.90;;;;;;5115535;28;20035;-54
2023/03/11 06:36:19;;;;;;;6.32;3.30;;;11.10;99.90;;;;;;5114848;28;20026;-54
2023/03/11 06:38:45;;;;;;;6.32;3.67;;;11.00;99.90;;;;;;5115312;28;20020;-54
2023/03/11 06:41:11;;;;;;;5.38;2.90;;;11.00;99.90;;;;;;5115412;28;20031;-54
2023/03/11 06:43:37;;;;;;;5.30;3.30;;;10.90;99.90;;;;;;5115418;28;20073;-54
2023/03/11 06:46:17;;;;;;;5.47;3.20;;;10.90;99.90;;;;;;5115077;28;20027;-54
2023/03/11 06:48:44;;;;;;;6.50;3.67;;;10.80;99.90;;;;;;5115664;28;20020;-54
2023/03/11 06:51:10;;;;;;;5.20;2.90;;;10.80;99.90;;;;;;5064297;28;20496;-54
2023/03/11 06:53:36;;;;;;;2.88;1.65;;;10.80;99.90;;;;;;5012322;28;20050;-54
2023/03/11 06:56:12;;;;;;;4.68;2.08;;;10.70;99.90;;;;;;5012580;28;20053;-54
2023/03/11 06:58:39;;;;;;;2.10;1.63;;;10.80;99.90;;;;;;5025527;28;20146;-54
2023/03/11 07:01:09;;;;;;;2.33;1.63;;;10.80;99.90;;;;;;5029085;28;20569;-55
2023/03/11 07:03:35;;;;;;;3.15;1.50;;;10.70;99.90;;;;;;5012347;28;20058;-54
2023/03/11 07:06:00;;;;;;;3.42;1.27;;;10.70;99.90;;;;;;5012260;28;20045;-54
2023/03/11 07:08:27;;;;;;;3.47;2.03;;;10.70;99.90;;;;;;4979962;28;20037;-55
2023/03/11 07:11:01;;;;;;;1.85;0.93;;;10.70;99.90;;;;;;5012229;28;20038;-54
2023/03/11 07:13:27;;;;;;;2.78;1.02;;;10.70;99.90;;;;;;5012354;28;20511;-54
2023/03/11 07:16:05;;;;;;;4.05;1.25;;;10.60;99.90;;;;;;5012009;28;20493;-54
2023/03/11 07:18:31;;;;;;;1.02;0.73;;;10.60;99.90;;;;;;4979493;28;20143;-54
2023/03/11 07:20:57;;;;;;;2.05;0.80;;;10.60;99.90;;;;;;5012288;28;20064;-54
2023/03/11 07:23:23;;;;;;;2.97;0.93;;;10.50;99.90;;;;;;5031883;28;20061;-54
2023/03/11 07:25:50;;;;;;;1.55;0.93;;;;;;;;;;5054227;28;20398;-54
2023/03/11 07:28:16;;;;;;;2.63;1.02;;;10.50;99.90;;;;;;5071741;28;20087;-54
2023/03/11 07:30:45;;;;;;;2.08;1.17;;;10.60;99.90;;;;;;5071717;28;20479;-54
2023/03/11 07:33:11;;;;;;;2.90;1.48;;;10.70;99.90;;;;;;5071661;28;20174;-54
2023/03/11 07:35:37;;;;;;;3.33;1.02;;;10.70;99.90;;;;;;5112242;28;20069;-54
2023/03/11 07:38:03;;;;;;;2.28;0.90;;;10.80;99.90;;;;;;5114067;28;20516;-54
2023/03/11 07:40:29;;;;;;;1.80;1.10;;;10.90;99.90;;;;;;5078293;28;20036;-54
2023/03/11 07:42:54;;;;;;;2.47;1.00;;;10.90;99.90;;;;;;5114304;28;20099;-54
2023/03/11 07:45:20;;;;;;;3.35;1.50;;;10.90;99.90;;;;;;5110791;28;20024;-54
2023/03/11 07:47:46;;;;;;;2.20;1.23;;;10.90;99.90;;;;;;5103891;28;20088;-54
2023/03/11 07:50:12;;;;;;;8.75;5.00;;;;;;;;;;5066971;28;20031;-54
2023/03/11 07:52:38;;;;;;;13.25;8.75;;;10.90;99.90;;;;;;5025959;28;20047;-54
2023/03/11 07:55:04;;;;;;;20.38;13.18;;;11.00;99.90;;;;;;5073721;28;20043;-54
2023/03/11 07:57:30;;;;;;;21.00;13.65;;;11.10;99.90;;;;;;5058619;28;20047;-55
2023/03/11 07:59:55;;;;;;;8.38;5.30;;;11.20;99.90;;;;;;5102443;28;20027;-54
2023/03/11 08:02:21;;;;;;;7.10;4.45;;;11.10;99.90;;;;;;5051887;28;20119;-54
2023/03/11 08:04:47;;;;;;;6.63;4.80;;;11.10;99.90;;;;;;5102373;28;20482;-54
2023/03/11 08:07:12;;;;;;;5.80;3.97;;;11.20;99.90;;;;;;5100562;28;20043;-53
2023/03/11 08:09:38;;;;;;;22.92;12.95;;;11.00;99.90;;;;;;5093313;28;20032;-54
2023/03/11 08:12:04;;;;;;;33.15;18.10;;;11.00;99.90;;;;;;5100919;28;20076;-54
2023/03/11 08:14:29;;;;;;;20.48;12.95;;;11.10;99.90;;;;;;5102076;28;20063;-55
2023/03/11 08:16:55;;;;;;;7.00;4.75;;;11.00;99.90;;;;;;5103515;28;20022;-55
2023/03/11 08:19:21;;;;;;;11.00;5.72;;;10.80;99.90;;;;;;5103283;28;20028;-55
2023/03/11 08:21:47;;;;;;;10.48;6.78;;;10.70;99.90;;;;;;5102472;28;20045;-54
2023/03/11 08:24:13;;;;;;;21.58;11.77;;;10.80;99.90;;;;;;5109712;28;20359;-54
2023/03/11 08:26:39;;;;;;;22.10;11.18;;;11.10;99.90;;;;;;5113611;28;20188;-54
2023/03/11 08:29:05;;;;;;;20.33;13.10;;;11.00;99.90;;;;;;5111101;28;20028;-54
2023/03/11 08:31:33;;;;;;;72.20;39.80;;;11.00;99.90;;;;;;5103664;28;20030;-54
2023/03/11 08:34:02;;;;;;;46.78;27.45;;;11.10;99.90;;;;;;5100973;28;20028;-53
2023/03/11 08:36:28;;;;;;;29.30;18.08;;;11.20;99.90;;;;;;5101064;28;20022;-53
2023/03/11 08:38:54;;;;;;;15.32;9.45;;;11.20;99.90;;;;;;5113548;28;20474;-53
2023/03/11 08:41:20;;;;;;;11.07;7.75;;;11.40;99.90;;;;;;5077652;28;20061;-53
2023/03/11 08:43:45;;;;;;;12.02;7.68;;;11.40;99.90;;;;;;5094777;28;20479;-53
2023/03/11 08:46:36;;;;;;;18.50;11.77;;;11.30;99.90;;;;;;5060800;28;20127;-54
2023/03/11 08:49:03;;;;;;;16.88;10.80;;;11.50;99.90;;;;;;5111875;28;20035;-54
2023/03/11 08:51:31;;;;;;;15.93;9.93;;;11.50;99.90;;;;;;5106446;28;20020;-53
2023/03/11 08:53:57;;;;;;;11.07;7.40;;;11.60;99.90;;;;;;5092830;28;20487;-53
2023/03/11 08:56:23;;;;;;;11.85;7.85;;;11.50;99.90;;;;;;5057333;28;20056;-53
2023/03/11 08:58:49;;;;;;;12.88;9.30;;;11.40;99.90;;;;;;5094767;28;20056;-53
2023/03/11 09:01:15;;;;;;;13.40;9.15;;;11.30;99.90;;;;;;5096802;28;20036;-53
2023/03/11 09:03:41;;;;;;;14.25;10.30;;;11.20;99.90;;;;;;5096707;28;20035;-54
2023/03/11 09:06:15;;;;;;;9.05;6.18;;;11.30;99.90;;;;;;5096847;28;20119;-54
2023/03/11 09:08:41;;;;;;;9.95;6.35;;;11.00;99.90;;;;;;5066354;28;20036;-53
2023/03/11 09:11:08;;;;;;;6.95;4.85;;;10.80;99.90;;;;;;5106705;28;20020;-53
2023/03/11 09:13:34;;;;;;;11.38;6.85;;;10.50;99.90;;;;;;5100160;28;20070;-53
2023/03/11 09:16:04;;;;;;;8.95;6.10;;;11.80;99.90;;;;;;5096782;28;20028;-53
2023/03/11 09:18:30;;;;;;;18.77;11.23;;;10.40;99.90;;;;;;5073906;28;20123;-53
2023/03/11 09:20:57;;;;;;;19.00;12.23;;;10.10;99.90;;;;;;5074175;28;20607;-51
2023/03/11 09:23:23;;;;;;;12.45;7.95;;;10.00;99.90;;;;;;5073953;28;20036;-53
2023/03/11 09:25:49;;;;;;;14.38;8.23;;;;;;;;;;5074055;28;20021;-52
2023/03/11 09:28:15;;;;;;;15.98;9.63;;;9.20;99.90;;;;;;5057339;28;20036;-55
2023/03/11 09:30:40;;;;;;;13.88;9.27;;;9.30;99.90;;;;;;5074012;28;20412;-54
2023/03/11 09:33:07;;;;;;;15.20;8.15;;;9.30;99.90;;;;;;5060364;28;20044;-56
2023/03/11 09:35:33;;;;;;;8.90;6.63;;;9.60;99.90;;;;;;5084324;28;20024;-54
2023/03/11 09:37:58;;;;;;;8.02;4.38;;;9.50;99.90;;;;;;5082085;28;20040;-55
2023/03/11 09:40:26;;;;;;;14.07;7.60;;;9.30;99.90;;;;;;5076278;28;20054;-53
2023/03/11 09:42:58;;;;;;;13.13;6.75;;;9.10;99.90;;;;;;5084444;28;20032;-54
2023/03/11 09:45:38;;;;;;;8.90;4.28;;;8.80;99.90;;;;;;5070674;28;20040;-52
2023/03/11 09:48:30;;;;;;;6.93;3.60;;;8.40;99.90;;;;;;5090244;28;20411;-53
2023/03/11 09:50:56;;;;;;;;;;;;;;;;;;5097547;28;20428;-54
2023/03/11 09:53:35;;;;;;;10.82;6.35;;;8.30;99.90;;;;;;5105799;28;20014;-51
2023/03/11 09:56:04;;;;;;;18.70;8.88;;;8.30;99.90;;;;;;5103357;28;20069;-53
2023/03/11 09:58:58;;;;;;;9.55;5.60;;;8.30;99.90;;;;;;5070309;28;20056;-54
2023/03/11 10:01:38;;;;;;;9.88;5.72;;;8.20;99.90;;;;;;5109430;28;20031;-53
2023/03/11 10:04:08;;;;;;;14.05;7.28;;;;;;;;;;5100191;28;20019;-52
2023/03/11 10:06:35;;;;;;;12.90;7.63;;;;;;;;;;5108375;28;20032;-52
2023/03/11 10:09:10;;;;;;;13.13;7.22;;;;;;;;;;5106654;28;20028;-53
2023/03/11 10:11:48;;;;;;;15.27;7.68;;;;;;;;;;5106892;28;20473;-53
2023/03/11 10:14:35;;;;;;;16.00;7.18;;;;;;;;;;5109823;28;20039;-53
2023/03/11 10:17:04;;;;;;;19.48;9.27;;;;;;;;;;5068243;28;20067;-53
2023/03/11 10:19:38;;;;;;;21.20;10.60;;;7.90;99.90;;;;;;5057995;28;20510;-53
2023/03/11 10:22:27;;;;;;;13.75;9.07;;;7.90;99.90;;;;;;5106784;28;20524;-54
2023/03/11 10:25:13;;;;;;;10.57;6.18;;;8.00;99.90;;;;;;5066832;28;20114;-53
2023/03/11 10:27:47;;;;;;;8.85;6.18;;;8.00;99.90;;;;;;5071701;28;20059;-53
2023/03/11 10:30:50;;;;;;;9.95;6.20;;;8.10;99.90;;;;;;5070674;28;20135;-53
2023/03/11 10:33:35;;;;;;;12.95;7.28;;;8.10;99.90;;;;;;5067689;28;20108;-53
2023/03/11 10:36:10;;;;;;;14.90;11.77;;;7.90;99.90;;;;;;5071504;28;20032;-53
2023/03/11 10:38:56;;;;;;;12.70;8.18;;;7.90;99.90;;;;;;5039858;28;20043;-52
2023/03/11 10:41:58;;;;;;;7.35;4.78;;;7.80;99.90;;;;;;5006686;28;20497;-53
2023/03/11 10:44:38;;;;;;;12.65;9.43;;;7.60;99.90;;;;;;4934522;29;20032;-53
2023/03/11 10:47:05;;;;;;;5.78;4.00;;;7.80;99.90;;;;;;4934876;29;20082;-52
2023/03/11 10:49:31;;;;;;;8.98;5.13;;;7.80;99.90;;;;;;4931003;29;20048;-52
2023/03/11 10:51:57;;;;;;;11.35;9.80;;;7.90;99.90;;;;;;4934391;29;20175;-53
2023/03/11 10:54:38;;;;;;;15.57;9.90;;;7.80;99.90;;;;;;4934074;29;20090;-52
2023/03/11 10:57:36;;;;;;;12.52;7.57;;;8.20;99.90;;;;;;4931125;29;20090;-52
2023/03/11 11:00:15;;;;;;;15.77;9.02;;;8.10;99.90;;;;;;4932098;29;20063;-52
2023/03/11 11:02:50;;;;;;;10.60;6.65;;;8.20;99.90;;;;;;4954617;28;20478;-53
2023/03/11 11:05:21;;;;;;;13.18;6.93;;;8.20;99.90;;;;;;4961570;28;20027;-52
2023/03/11 11:08:00;;;;;;;9.50;6.38;;;8.30;99.90;;;;;;4959055;28;20051;-52
2023/03/11 11:10:27;;;;;;;6.10;3.95;;;8.40;99.90;;;;;;4954325;28;20031;-52
2023/03/11 11:13:17;;;;;;;5.25;2.60;;;8.60;99.90;;;;;;4957343;28;20534;-53
2023/03/11 11:16:03;;;;;;;3.42;2.17;;;8.30;99.90;;;;;;4962805;28;20047;-52
2023/03/11 11:18:40;;;;;;;2.67;1.75;;;8.20;99.90;;;;;;4998408;28;20040;-52
2023/03/11 11:21:12;;;;;;;3.95;1.90;;;8.10;99.90;;;;;;5101428;28;20114;-53
2023/03/11 11:23:40;;;;;;;8.48;3.05;;;8.00;99.90;;;;;;5106494;28;20119;-52
2023/03/11 11:26:23;;;;;;;4.47;2.65;;;8.00;99.90;;;;;;5064423;28;20055;-52
2023/03/11 11:29:08;;;;;;;9.05;4.03;;;8.10;99.90;;;;;;5057548;28;20029;-52
2023/03/11 11:31:34;;;;;;;6.40;3.65;;;8.30;99.90;;;;;;5060189;28;20032;-52
2023/03/11 11:34:00;;;;;;;6.28;3.00;;;8.40;99.90;;;;;;5058084;28;20424;-52
2023/03/11 11:36:33;;;;;;;6.65;2.80;;;8.50;99.90;;;;;;5063609;28;20051;-52
2023/03/11 11:39:03;;;;;;;4.22;2.20;;;8.70;99.90;;;;;;5059453;28;20032;-52
2023/03/11 11:41:34;;;;;;;4.40;2.20;;;9.10;99.90;;;;;;5060425;28;20384;-52
2023/03/11 11:44:04;;;;;;;3.55;1.77;;;9.30;99.90;;;;;;5060438;28;20484;-52
2023/03/11 11:46:39;;;;;;;3.42;2.15;;;9.20;99.90;;;;;;5064214;28;20032;-51
2023/03/11 11:49:30;;;;;;;3.58;1.73;;;9.00;99.90;;;;;;5059648;28;20029;-52
2023/03/11 11:52:13;;;;;;;2.15;1.15;;;8.90;99.90;;;;;;5061901;28;20128;-50
2023/03/11 11:54:51;;;;;;;1.52;1.00;;;8.80;99.90;;;;;;5053396;28;20107;-49
2023/03/11 11:57:20;;;;;;;1.77;1.17;;;8.70;99.90;;;;;;5086966;28;20083;-51
2023/03/11 11:59:46;;;;;;;2.13;1.08;;;8.70;99.90;;;;;;5107993;28;20107;-55
2023/03/11 12:02:15;;;;;;;4.18;1.90;;;8.90;99.90;;;;;;5103449;28;20103;-58
2023/03/11 12:04:44;;;;;;;2.65;1.38;;;8.70;99.90;;;;;;5094993;28;20163;-60
2023/03/11 12:07:28;;;;;;;4.63;1.45;;;8.90;99.90;;;;;;5094602;28;20032;-59
2023/03/11 12:10:32;;;;;;;4.30;1.42;;;9.10;99.90;;;;;;5094433;28;20036;-59
2023/03/11 12:13:25;;;;;;;3.10;1.25;;;9.10;99.90;;;;;;5095879;28;20020;-58
2023/03/11 12:16:25;;;;;;;4.80;2.05;;;9.30;99.90;;;;;;5102198;28;20027;-60
2023/03/11 12:19:14;;;;;;;6.47;3.92;;;;;;;;;;5096791;28;20038;-58
2023/03/11 12:21:40;;;;;;;8.45;4.63;;;;;;;;;;5096182;28;20031;-58
2023/03/11 12:24:25;;;;;;;4.63;2.22;;;;;;;;;;5095855;28;20043;-57
2023/03/11 12:26:53;;;;;;;1.98;1.70;;;;;;;;;;5094364;28;20039;-57
2023/03/11 12:29:33;;;;;;;1.60;1.20;;;;;;;;;;5094453;28;20059;-58
2023/03/11 12:32:00;;;;;;;4.20;2.08;;;;;;;;;;5105205;28;20032;-58
2023/03/11 12:34:27;;;;;;;4.10;1.85;;;;;;;;;;5101316;28;20035;-58
2023/03/11 12:36:56;;;;;;;6.68;3.15;;;;;;;;;;5094305;28;20039;-59
2023/03/11 12:39:32;;;;;;;6.22;1.50;;;;;;;;;;5103504;28;20036;-57
2023/03/11 12:42:10;;;;;;;4.60;2.92;;;;;;;;;;5105874;28;20020;-57
2023/03/11 12:44:40;;;;;;;4.43;4.03;;;;;;;;;;5103680;28;20016;-57
2023/03/11 12:47:19;;;;;;;5.20;3.30;;;;;;;;;;5105135;28;20070;-59
2023/03/11 12:49:47;;;;;;;2.33;1.23;;;;;;;;;;5100207;28;20028;-58
2023/03/11 12:52:13;;;;;;;2.28;1.20;;;;;;;;;;5099356;28;20046;-58
2023/03/11 12:54:40;;;;;;;1.38;1.00;;;;;;;;;;5099660;28;20437;-58
2023/03/11 12:57:25;;;;;;;9.30;1.40;;;;;;;;;;5102658;28;20127;-58
2023/03/11 13:00:11;;;;;;;2.83;1.75;;;;;;;;;;5100360;28;20032;-58
2023/03/11 13:02:55;;;;;;;3.70;1.38;;;;;;;;;;5103944;28;20370;-58
2023/03/11 13:05:40;;;;;;;1.60;1.20;;;;;;;;;;5101781;28;20036;-58
2023/03/11 13:08:09;;;;;;;2.50;1.02;;;;;;;;;;5101332;28;20471;-58